Time,TemperatureF,DewpointF,PressureIn,WindDirection,WindDirectionDegrees,WindSpeedMPH,WindSpeedGustMPH,Humidity,HourlyPrecipIn,Conditions,Clouds,dailyrainin,SolarRadiationWatts/m^2,SoftwareType,DateUTC
2013-04-19 00:03:00,40.0,40.0,-100.00,SW,221,14.0,25.0,100,0.00,,,0.53,0.000000,,2013-04-19 05:03:00,
2013-04-19 00:11:00,40.0,40.0,-100.00,SW,221,14.0,25.0,100,0.00,,,0.53,0.000000,,2013-04-19 05:11:00,
2013-04-19 00:32:00,38.0,38.0,-100.00,SW,217,15.0,24.0,99,0.00,,,0.33,0.000000,,2013-04-19 05:32:00,
2013-04-19 00:42:00,38.0,38.0,-100.00,SW,217,15.0,24.0,99,0.00,,,0.33,0.000000,,2013-04-19 05:42:00,
2013-04-19 00:52:00,38.0,38.0,-100.00,SW,217,15.0,24.0,99,0.00,,,0.33,0.000000,,2013-04-19 05:52:00,
2013-04-19 01:02:00,38.0,38.0,-100.00,SW,217,15.0,24.0,99,0.00,,,0.33,0.000000,,2013-04-19 06:02:00,
2013-04-19 01:11:00,38.0,38.0,-100.00,SW,217,15.0,24.0,99,0.00,,,0.33,0.000000,,2013-04-19 06:11:00,
2013-04-19 01:32:00,37.0,36.0,-100.00,SW,226,16.0,29.0,95,0.00,,,0.22,0.000000,,2013-04-19 06:32:00,
2013-04-19 01:42:00,37.0,36.0,-100.00,SW,226,16.0,29.0,95,0.00,,,0.22,0.000000,,2013-04-19 06:42:00,
2013-04-19 01:53:00,37.0,36.0,-100.00,SW,226,16.0,29.0,95,0.00,,,0.22,0.000000,,2013-04-19 06:53:00,
2013-04-19 02:02:00,37.0,36.0,-100.00,SW,226,16.0,29.0,95,0.00,,,0.22,0.000000,,2013-04-19 07:02:00,
2013-04-19 02:12:00,37.0,36.0,-100.00,SW,226,16.0,29.0,95,0.00,,,0.22,0.000000,,2013-04-19 07:12:00,
2013-04-19 03:42:00,35.0,34.0,-100.00,SW,231,13.0,23.0,98,-99.99,,,0.16,0.000000,,2013-04-19 08:42:00,
2013-04-19 03:52:00,35.0,34.0,-100.00,SW,231,13.0,23.0,98,-99.99,,,0.16,0.000000,,2013-04-19 08:52:00,
2013-04-19 04:01:00,35.0,34.0,-100.00,SW,231,13.0,23.0,98,-99.99,,,0.16,0.000000,,2013-04-19 09:01:00,
2013-04-19 04:11:00,35.0,34.0,-100.00,SW,231,13.0,23.0,98,-99.99,,,0.16,0.000000,,2013-04-19 09:11:00,
2013-04-19 04:33:00,34.0,34.0,-100.00,SW,233,13.0,22.0,100,0.00,,,0.16,0.000000,,2013-04-19 09:33:00,
2013-04-19 04:43:00,34.0,34.0,-100.00,SW,233,13.0,22.0,100,0.00,,,0.16,0.000000,,2013-04-19 09:43:00,
2013-04-19 04:52:00,34.0,34.0,-100.00,SW,233,13.0,22.0,100,0.00,,,0.16,0.000000,,2013-04-19 09:52:00,
2013-04-19 05:02:00,34.0,34.0,-100.00,SW,233,13.0,22.0,100,0.00,,,0.16,0.000000,,2013-04-19 10:02:00,
2013-04-19 05:13:00,34.0,34.0,-100.00,SW,233,13.0,22.0,100,0.00,,,0.16,0.000000,,2013-04-19 10:13:00,
2013-04-19 05:33:00,34.0,32.0,-100.00,WSW,238,15.0,26.0,92,0.00,,,0.16,0.000000,,2013-04-19 10:33:00,
2013-04-19 05:42:00,34.0,32.0,-100.00,WSW,238,15.0,26.0,92,0.00,,,0.16,0.000000,,2013-04-19 10:42:00,
2013-04-19 05:52:00,34.0,32.0,-100.00,WSW,238,15.0,26.0,92,0.00,,,0.16,0.000000,,2013-04-19 10:52:00,
2013-04-19 06:03:00,34.0,32.0,-100.00,WSW,238,15.0,26.0,92,0.00,,,0.16,0.000000,,2013-04-19 11:03:00,
2013-04-19 06:11:00,34.0,32.0,-100.00,WSW,238,15.0,26.0,92,0.00,,,0.16,0.000000,,2013-04-19 11:11:00,
2013-04-19 06:32:00,34.0,32.0,-100.00,WSW,242,13.0,23.0,94,0.00,,,0.15,0.000000,,2013-04-19 11:32:00,
2013-04-19 06:43:00,34.0,32.0,-100.00,WSW,242,13.0,23.0,94,0.00,,,0.15,0.000000,,2013-04-19 11:43:00,
2013-04-19 06:52:00,34.0,32.0,-100.00,WSW,242,13.0,23.0,94,0.00,,,0.15,0.000000,,2013-04-19 11:52:00,
2013-04-19 07:03:00,34.0,32.0,-100.00,WSW,242,13.0,23.0,94,0.00,,,0.15,0.000000,,2013-04-19 12:03:00,
2013-04-19 07:12:00,34.0,32.0,-100.00,WSW,242,13.0,23.0,94,0.00,,,0.15,0.000000,,2013-04-19 12:12:00,
2013-04-19 07:42:00,34.0,33.0,-100.00,WSW,252,15.0,25.0,95,0.00,,,0.13,20.000000,,2013-04-19 12:42:00,
2013-04-19 07:53:00,34.0,33.0,-100.00,WSW,252,15.0,25.0,95,0.00,,,0.13,20.000000,,2013-04-19 12:53:00,
2013-04-19 08:01:00,34.0,33.0,-100.00,WSW,252,15.0,25.0,95,0.00,,,0.13,20.000000,,2013-04-19 13:01:00,
2013-04-19 08:11:00,34.0,33.0,-100.00,WSW,252,15.0,25.0,95,0.00,,,0.13,20.000000,,2013-04-19 13:11:00,
2013-04-19 08:42:00,33.0,33.0,-100.00,West,264,14.0,26.0,100,0.01,,,0.10,80.000000,,2013-04-19 13:42:00,
2013-04-19 08:52:00,33.0,33.0,-100.00,West,264,14.0,26.0,100,0.01,,,0.10,80.000000,,2013-04-19 13:52:00,
2013-04-19 09:02:00,33.0,33.0,-100.00,West,264,14.0,26.0,100,0.01,,,0.10,80.000000,,2013-04-19 14:02:00,
2013-04-19 09:11:00,33.0,33.0,-100.00,West,264,14.0,26.0,100,0.01,,,0.10,80.000000,,2013-04-19 14:11:00,
2013-04-19 09:32:00,34.0,32.0,-100.00,West,273,17.0,28.0,94,0.00,,,0.06,110.000000,,2013-04-19 14:32:00,
2013-04-19 09:43:00,34.0,32.0,-100.00,West,273,17.0,28.0,94,0.00,,,0.06,110.000000,,2013-04-19 14:43:00,
2013-04-19 09:52:00,34.0,32.0,-100.00,West,273,17.0,28.0,94,0.00,,,0.06,110.000000,,2013-04-19 14:52:00,
2013-04-19 10:01:00,34.0,32.0,-100.00,West,273,17.0,28.0,94,0.00,,,0.06,110.000000,,2013-04-19 15:01:00,
2013-04-19 10:12:00,34.0,32.0,-100.00,West,273,17.0,28.0,94,0.00,,,0.06,110.000000,,2013-04-19 15:12:00,
2013-04-19 10:43:00,35.0,30.0,-100.00,WNW,283,15.0,28.0,82,0.00,,,0.06,143.000000,,2013-04-19 15:43:00,
2013-04-19 10:52:00,35.0,30.0,-100.00,WNW,283,15.0,28.0,82,0.00,,,0.06,143.000000,,2013-04-19 15:52:00,
2013-04-19 11:03:00,35.0,30.0,-100.00,WNW,283,15.0,28.0,82,0.00,,,0.06,143.000000,,2013-04-19 16:03:00,
2013-04-19 11:13:00,35.0,30.0,-100.00,WNW,283,15.0,28.0,82,0.00,,,0.06,143.000000,,2013-04-19 16:13:00,
2013-04-19 11:43:00,36.0,29.0,-100.00,West,276,17.0,28.0,76,0.00,,,0.06,234.000000,,2013-04-19 16:43:00,
2013-04-19 11:53:00,36.0,29.0,-100.00,West,276,17.0,28.0,76,0.00,,,0.06,234.000000,,2013-04-19 16:53:00,
2013-04-19 12:02:00,36.0,29.0,-100.00,West,276,17.0,28.0,76,0.00,,,0.06,234.000000,,2013-04-19 17:02:00,
2013-04-19 12:12:00,36.0,29.0,-100.00,West,276,17.0,28.0,76,0.00,,,0.06,234.000000,,2013-04-19 17:12:00,
2013-04-19 12:43:00,36.0,29.0,-100.00,WNW,286,19.0,28.0,77,0.00,,,0.06,274.000000,,2013-04-19 17:43:00,
2013-04-19 12:52:00,36.0,29.0,-100.00,WNW,286,19.0,28.0,77,0.00,,,0.06,274.000000,,2013-04-19 17:52:00,
2013-04-19 13:02:00,36.0,29.0,-100.00,WNW,286,19.0,28.0,77,0.00,,,0.06,274.000000,,2013-04-19 18:02:00,
2013-04-19 13:13:00,36.0,29.0,-100.00,WNW,286,19.0,28.0,77,0.00,,,0.06,274.000000,,2013-04-19 18:13:00,
2013-04-19 13:43:00,37.0,28.0,-100.00,West,273,21.0,38.0,69,0.00,,,0.06,517.000000,,2013-04-19 18:43:00,
2013-04-19 13:52:00,37.0,28.0,-100.00,West,273,21.0,38.0,69,0.00,,,0.06,517.000000,,2013-04-19 18:52:00,
2013-04-19 14:02:00,37.0,28.0,-100.00,West,273,21.0,38.0,69,0.00,,,0.06,517.000000,,2013-04-19 19:02:00,
2013-04-19 14:11:00,37.0,28.0,-100.00,West,273,21.0,38.0,69,0.00,,,0.06,517.000000,,2013-04-19 19:11:00,
2013-04-19 14:32:00,37.0,23.0,-100.00,WNW,289,22.0,35.0,57,0.00,,,0.06,331.000000,,2013-04-19 19:32:00,
2013-04-19 14:42:00,37.0,23.0,-100.00,WNW,289,22.0,35.0,57,0.00,,,0.06,331.000000,,2013-04-19 19:42:00,
2013-04-19 14:52:00,37.0,23.0,-100.00,WNW,289,22.0,35.0,57,0.00,,,0.06,331.000000,,2013-04-19 19:52:00,
2013-04-19 15:02:00,37.0,23.0,-100.00,WNW,289,22.0,35.0,57,0.00,,,0.06,331.000000,,2013-04-19 20:02:00,
2013-04-19 15:11:00,37.0,23.0,-100.00,WNW,289,22.0,35.0,57,0.00,,,0.06,331.000000,,2013-04-19 20:11:00,
2013-04-19 15:42:00,36.0,28.0,-100.00,WNW,285,22.0,31.0,72,0.00,,,0.06,324.000000,,2013-04-19 20:42:00,
2013-04-19 15:52:00,36.0,28.0,-100.00,WNW,285,22.0,31.0,72,0.00,,,0.06,324.000000,,2013-04-19 20:52:00,
2013-04-19 16:01:00,36.0,28.0,-100.00,WNW,285,22.0,31.0,72,0.00,,,0.06,324.000000,,2013-04-19 21:01:00,
2013-04-19 16:11:00,36.0,28.0,-100.00,WNW,285,22.0,31.0,72,0.00,,,0.06,324.000000,,2013-04-19 21:11:00,
2013-04-19 17:33:00,36.0,24.0,-100.00,West,273,15.0,32.0,61,-99.99,,,0.04,236.000000,,2013-04-19 22:33:00,
2013-04-19 17:42:00,36.0,24.0,-100.00,West,273,15.0,32.0,61,-99.99,,,0.04,236.000000,,2013-04-19 22:42:00,
2013-04-19 17:52:00,36.0,24.0,-100.00,West,273,15.0,32.0,61,-99.99,,,0.04,236.000000,,2013-04-19 22:52:00,
2013-04-19 18:03:00,36.0,24.0,-100.00,West,273,15.0,32.0,61,-99.99,,,0.04,236.000000,,2013-04-19 23:03:00,
2013-04-19 18:11:00,36.0,24.0,-100.00,West,273,15.0,32.0,61,-99.99,,,0.04,236.000000,,2013-04-19 23:11:00,
2013-04-19 18:42:00,35.0,23.0,-100.00,NW,308,18.0,29.0,60,0.00,,,0.03,118.000000,,2013-04-19 23:42:00,
2013-04-19 18:52:00,35.0,23.0,-100.00,NW,308,18.0,29.0,60,0.00,,,0.03,118.000000,,2013-04-19 23:52:00,
2013-04-19 19:02:00,35.0,23.0,-100.00,NW,308,18.0,29.0,60,0.00,,,0.03,118.000000,,2013-04-20 00:02:00,
2013-04-19 19:12:00,35.0,23.0,-100.00,NW,308,18.0,29.0,60,0.00,,,0.03,118.000000,,2013-04-20 00:12:00,
2013-04-19 20:32:00,33.0,27.0,-100.00,NW,311,19.0,26.0,77,-99.99,,,0.01,4.000000,,2013-04-20 01:32:00,
2013-04-19 20:42:00,33.0,27.0,-100.00,NW,311,19.0,26.0,77,-99.99,,,0.01,4.000000,,2013-04-20 01:42:00,
2013-04-19 20:52:00,33.0,27.0,-100.00,NW,311,19.0,26.0,77,-99.99,,,0.01,4.000000,,2013-04-20 01:52:00,
2013-04-19 21:01:00,33.0,27.0,-100.00,NW,311,19.0,26.0,77,-99.99,,,0.01,4.000000,,2013-04-20 02:01:00,
2013-04-19 21:11:00,33.0,27.0,-100.00,NW,311,19.0,26.0,77,-99.99,,,0.01,4.000000,,2013-04-20 02:11:00,
2013-04-19 21:32:00,32.0,23.0,-100.00,NW,317,16.0,24.0,70,0.00,,,0.01,0.000000,,2013-04-20 02:32:00,
2013-04-19 21:42:00,32.0,23.0,-100.00,NW,317,16.0,24.0,70,0.00,,,0.01,0.000000,,2013-04-20 02:42:00,
2013-04-19 21:52:00,32.0,23.0,-100.00,NW,317,16.0,24.0,70,0.00,,,0.01,0.000000,,2013-04-20 02:52:00,
2013-04-19 22:01:00,32.0,23.0,-100.00,NW,317,16.0,24.0,70,0.00,,,0.01,0.000000,,2013-04-20 03:01:00,
2013-04-19 22:11:00,32.0,23.0,-100.00,NW,317,16.0,24.0,70,0.00,,,0.01,0.000000,,2013-04-20 03:11:00,
2013-04-19 22:43:00,31.0,21.0,-100.00,NW,325,11.0,28.0,67,0.00,,,0.01,0.000000,,2013-04-20 03:43:00,
2013-04-19 22:53:00,31.0,21.0,-100.00,NW,325,11.0,28.0,67,0.00,,,0.01,0.000000,,2013-04-20 03:53:00,
2013-04-19 23:03:00,31.0,21.0,-100.00,NW,325,11.0,28.0,67,0.00,,,0.01,0.000000,,2013-04-20 04:03:00,
2013-04-19 23:12:00,31.0,21.0,-100.00,NW,325,11.0,28.0,67,0.00,,,0.01,0.000000,,2013-04-20 04:12:00,
2013-04-19 23:43:00,31.0,21.0,-100.00,NW,318,10.0,22.0,65,0.00,,,0.01,0.000000,,2013-04-20 04:43:00,
2013-04-19 23:53:00,31.0,21.0,-100.00,NW,318,10.0,22.0,65,0.00,,,0.01,0.000000,,2013-04-20 04:53:00,